Peotone Weather

Nearby METAR Reports

 

KIGQ - Lansing, Illinois, USA
Distance from station: NE 19mi, 30km
Updated: Sat, 20-Oct-2018 10:35am CDT
Clear
Clear
 Wind from W
Wind: W 18 mph , 30 km/h, Gust: 30 mph , 48 km/h
Temperature: 52°F , 11°C
Dew Point: 37°F , 3°C
Humidity: 58%
Barometer: 29.85 inHg , 1010.8 hPa
Clouds: Clear
Visibility: 10 miles , 16 km
2018/10/20 15:35 KIGQ 201535Z AUTO 27016G26KT 10SM CLR 11/03 A2985 RMK AO2 T01080026
KIKK - Kankakee, Illinois, USA
Distance from station: S 19mi, 30km
Updated: Sat, 20-Oct-2018 10:35am CDT
Clear
Clear
 Wind from W
Wind: W 23 mph , 37 km/h, Gust: 29 mph , 46 km/h
Temperature: 54°F , 12°C
Dew Point: 37°F , 3°C
Humidity: 54%
Barometer: 29.89 inHg , 1012.2 hPa
Clouds: Clear
Visibility: 10 miles , 16 km
2018/10/20 15:35 KIKK 201535Z AUTO 28020G25KT 10SM CLR 12/03 A2989 RMK AO2 T01160030
 
KSJC - Joliet, Illinois, USA
Distance from station: WNW 24mi, 38km
Updated: Sat, 20-Oct-2018 10:53am CDT
Fog, Overcast
Fog, Overcast
 Wind from calm
Wind: Calm
Temperature: 54°F , 12°C
Dew Point: 54°F , 12°C
Humidity: 100%
Barometer: 30.04 inHg , 1017.3 hPa
Summary: Fog
Clouds: Overcast
Visibility: less than 1/4 mile , 0.4 km
Cloud details: Overcast 200 ft
2018/10/20 15:53 KSJC 201553Z 00000KT M1/4SM R30L/0600V1000FT FG VV002 12/12 A3004 RMK AO2 SLP171 T01170117
KLOT - Romeoville, Illinois, USA
Distance from station: NW 26mi, 41km
Updated: Sat, 20-Oct-2018 10:35am CDT
Clear
Clear
 Wind from WNW
Wind: WNW 28 mph , 44 km/h, Gust: 37 mph , 59 km/h
Temperature: 50°F , 10°C
Wind Chill: 42°F , 6°C
Dew Point: 36°F , 2°C
Humidity: 58%
Barometer: 29.86 inHg , 1011.2 hPa
Clouds: Clear
Visibility: 10 miles , 16 km
2018/10/20 15:35 KLOT 201535Z AUTO 29024G32KT 10SM CLR 10/02 A2986 RMK AO2 T01020024
 
KMDW - Midway Airport Chicago, Illinois, USA
Distance from station: N 31mi, 50km
Updated: Sat, 20-Oct-2018 10:53am CDT
Partly cloudy
Partly cloudy
 Wind from W
Wind: W 28 mph , 44 km/h, Gust: 40 mph , 65 km/h
Temperature: 52°F , 11°C
Dew Point: 32°F , 0°C
Humidity: 47%
Barometer: 29.84 inHg , 1010.5 hPa
Clouds: Partly cloudy
Visibility: 10 miles , 16 km
Cloud details: Partly cloudy 4000 ft
Partly cloudy 7000 ft
2018/10/20 15:53 KMDW 201553Z 28024G35KT 10SM SCT040 SCT070 11/00 A2984 RMK AO2 PK WND 29035/1552 SLP105 T01110000
KC09 - Morris, Illinois, USA
Distance from station: W 34mi, 54km
Updated: Sat, 20-Oct-2018 10:35am CDT
Clear
Clear
 Wind from WNW
Wind: WNW 25 mph , 41 km/h, Gust: 32 mph , 52 km/h
Temperature: 52°F , 11°C
Dew Point: 36°F , 2°C
Humidity: 54%
Barometer: 29.88 inHg , 1011.9 hPa
Clouds: Clear
Visibility: 10 miles , 16 km
2018/10/20 15:35 KC09 201535Z AUTO 29022G28KT 10SM CLR 11/02 A2988 RMK AO2 T01080016

Metar display script from Saratoga-Weather.org